Time;durP1;ratioP1;P1;durP2;ratioP2;P2;SDS_P1;SDS_P2;PMS_P1;PMS_P2;Temp;Humidity;BMP_temperature;BMP_pressure;BME280_temperature;BME280_humidity;BME280_pressure;Samples;Min_cycle;Max_cycle;Signal;HPM_P1;HPM_P2
2023/05/11 00:01:32;;;;;;;2.67;1.77;;;11.40;99.90;;;;;;5034715;28;20460;-76
2023/05/11 00:03:59;;;;;;;2.23;2.13;;;11.30;99.90;;;;;;5044951;28;20458;-76
2023/05/11 00:06:26;;;;;;;2.53;2.33;;;11.30;99.90;;;;;;5046558;28;20528;-76
2023/05/11 00:08:54;;;;;;;3.73;2.27;;;11.20;99.90;;;;;;5050383;28;20519;-76
2023/05/11 00:11:20;;;;;;;2.50;2.30;;;11.20;99.90;;;;;;5033921;28;20477;-76
2023/05/11 00:13:47;;;;;;;2.80;2.13;;;11.20;99.90;;;;;;5033647;28;20536;-76
2023/05/11 00:16:14;;;;;;;3.40;2.10;;;11.20;99.90;;;;;;5031381;28;20988;-76
2023/05/11 00:18:41;;;;;;;2.40;2.30;;;11.20;99.90;;;;;;5031914;28;20445;-76
2023/05/11 00:21:07;;;;;;;2.93;2.73;;;11.20;99.90;;;;;;5031223;28;20475;-76
2023/05/11 00:23:34;;;;;;;3.73;2.03;;;11.20;99.90;;;;;;5037543;28;20457;-76
2023/05/11 00:26:02;;;;;;;3.10;2.40;;;11.20;99.90;;;;;;5033808;28;20489;-76
2023/05/11 00:28:28;;;;;;;3.37;2.40;;;11.20;99.90;;;;;;5036403;28;20606;-76
2023/05/11 00:30:56;;;;;;;3.30;2.50;;;11.20;99.90;;;;;;5031702;28;20519;-76
2023/05/11 00:33:23;;;;;;;2.80;2.60;;;11.20;99.90;;;;;;5032681;28;20481;-76
2023/05/11 00:35:50;;;;;;;4.40;3.03;;;11.20;99.90;;;;;;5037757;28;20801;-76
2023/05/11 00:38:17;;;;;;;2.43;2.20;;;11.20;99.90;;;;;;5039042;28;20462;-76
2023/05/11 00:40:43;;;;;;;3.20;2.60;;;11.10;99.90;;;;;;5039500;28;20478;-76
2023/05/11 00:43:11;;;;;;;5.17;2.80;;;11.10;99.90;;;;;;5038776;28;20514;-76
2023/05/11 00:45:39;;;;;;;4.97;2.67;;;11.10;99.90;;;;;;5039622;28;20457;-76
2023/05/11 00:48:06;;;;;;;2.83;2.40;;;11.10;99.90;;;;;;5030951;28;20449;-76
2023/05/11 00:50:33;;;;;;;4.00;2.40;;;11.00;99.90;;;;;;5041080;28;20938;-76
2023/05/11 00:53:00;;;;;;;4.00;2.37;;;11.00;99.90;;;;;;5036055;28;21046;-76
2023/05/11 00:55:27;;;;;;;4.43;2.80;;;11.00;99.90;;;;;;5030785;28;20515;-76
2023/05/11 00:57:54;;;;;;;6.87;2.47;;;11.00;99.90;;;;;;5032588;28;20468;-76
2023/05/11 01:00:22;;;;;;;5.03;3.00;;;11.00;99.90;;;;;;5033378;28;20488;-76
2023/05/11 01:02:49;;;;;;;4.60;2.80;;;11.00;99.90;;;;;;5030998;28;20449;-76
2023/05/11 01:05:16;;;;;;;6.00;2.83;;;11.00;99.90;;;;;;5031396;28;20453;-77
2023/05/11 01:07:49;;;;;;;3.00;2.73;;;10.90;99.90;;;;;;5033041;28;20456;-76
2023/05/11 01:10:23;;;;;;;5.90;2.43;;;10.90;99.90;;;;;;5030606;28;20470;-76
2023/05/11 01:13:01;;;;;;;4.53;2.67;;;10.90;99.90;;;;;;5037046;28;20481;-76
2023/05/11 01:15:35;;;;;;;8.40;3.20;;;10.90;99.90;;;;;;5036742;28;20920;-76
2023/05/11 01:18:09;;;;;;;7.63;2.70;;;10.80;99.90;;;;;;5038892;28;20461;-76
2023/05/11 01:20:36;;;;;;;3.10;2.80;;;10.80;99.90;;;;;;5038665;28;20879;-76
2023/05/11 01:23:39;;;;;;;4.20;2.87;;;10.80;99.90;;;;;;5030310;28;20500;-77
2023/05/11 01:26:21;;;;;;;5.77;3.20;;;10.80;99.90;;;;;;5033440;28;20456;-76
2023/05/11 01:29:13;;;;;;;3.80;3.37;;;10.80;99.90;;;;;;5030592;28;20449;-76
2023/05/11 01:31:45;;;;;;;9.30;2.80;;;10.80;99.90;;;;;;5033398;28;20465;-77
2023/05/11 01:34:16;;;;;;;4.07;3.07;;;10.80;99.90;;;;;;5041130;28;20546;-76
2023/05/11 01:36:50;;;;;;;4.80;3.60;;;10.80;99.90;;;;;;5030256;28;20458;-76
2023/05/11 01:39:22;;;;;;;8.10;3.60;;;10.80;99.90;;;;;;5038958;28;20503;-76
2023/05/11 01:41:53;;;;;;;7.07;3.80;;;10.70;99.90;;;;;;5046364;28;20996;-76
2023/05/11 01:44:22;;;;;;;6.20;3.80;;;10.70;99.90;;;;;;5045075;28;20507;-76
2023/05/11 01:46:51;;;;;;;8.83;3.23;;;10.70;99.90;;;;;;5030272;28;20514;-76
2023/05/11 01:49:19;;;;;;;4.03;3.30;;;10.70;99.90;;;;;;5047087;28;20507;-76
2023/05/11 01:51:50;;;;;;;3.67;3.40;;;10.60;99.90;;;;;;5030430;28;20519;-76
2023/05/11 01:54:20;;;;;;;6.03;4.10;;;10.60;99.90;;;;;;5030101;28;20496;-76
2023/05/11 01:56:49;;;;;;;4.20;3.80;;;10.50;99.90;;;;;;5036987;28;20457;-76
2023/05/11 01:59:17;;;;;;;5.30;4.40;;;10.50;99.90;;;;;;5041836;28;20465;-76
2023/05/11 02:01:45;;;;;;;5.23;4.40;;;10.50;99.90;;;;;;5037951;28;20557;-76
2023/05/11 02:04:14;;;;;;;4.30;3.90;;;10.50;99.90;;;;;;5031708;28;20450;-76
2023/05/11 02:06:42;;;;;;;6.93;4.43;;;10.50;99.90;;;;;;5038001;28;20937;-76
2023/05/11 02:09:11;;;;;;;5.57;4.30;;;10.50;99.90;;;;;;5037949;28;21203;-76
2023/05/11 02:11:38;;;;;;;8.77;4.20;;;10.50;99.90;;;;;;5036051;28;20482;-76
2023/05/11 02:14:06;;;;;;;4.97;4.47;;;10.50;99.90;;;;;;5030045;28;20588;-76
2023/05/11 02:16:35;;;;;;;5.20;4.70;;;10.50;99.90;;;;;;5029975;28;20541;-76
2023/05/11 02:19:02;;;;;;;4.77;4.27;;;10.40;99.90;;;;;;5038414;28;20860;-76
2023/05/11 02:21:32;;;;;;;4.90;4.30;;;10.40;99.90;;;;;;5029938;28;20469;-76
2023/05/11 02:24:01;;;;;;;3.93;3.63;;;10.40;99.90;;;;;;5036194;28;20980;-76
2023/05/11 02:26:28;;;;;;;4.83;4.00;;;10.30;99.90;;;;;;5030334;28;20503;-76
2023/05/11 02:28:55;;;;;;;5.40;3.67;;;10.20;99.90;;;;;;5030196;28;20836;-77
2023/05/11 02:31:25;;;;;;;11.10;4.50;;;10.10;99.90;;;;;;5029762;28;20528;-76
2023/05/11 02:33:55;;;;;;;42.57;5.40;;;10.10;99.90;;;;;;5030042;28;20490;-76
2023/05/11 02:36:23;;;;;;;6.53;4.50;;;10.00;99.90;;;;;;5037961;28;20463;-76
2023/05/11 02:39:04;;;;;;;6.03;4.73;;;10.00;99.90;;;;;;5044915;28;20878;-76
2023/05/11 02:41:31;;;;;;;4.53;4.13;;;10.00;99.90;;;;;;5032850;28;20476;-76
2023/05/11 02:44:03;;;;;;;7.30;4.77;;;10.00;99.90;;;;;;5031085;28;20450;-76
2023/05/11 02:46:35;;;;;;;5.83;4.50;;;10.10;99.90;;;;;;5035664;28;20455;-76
2023/05/11 02:49:05;;;;;;;4.27;3.87;;;10.00;99.90;;;;;;5033965;28;20446;-76
2023/05/11 02:51:36;;;;;;;5.93;4.73;;;10.00;99.90;;;;;;5042258;28;20520;-76
2023/05/11 02:54:06;;;;;;;6.07;4.17;;;10.00;99.90;;;;;;5039141;28;20519;-76
2023/05/11 02:56:33;;;;;;;5.70;4.07;;;10.00;99.90;;;;;;5033190;28;20480;-76
2023/05/11 02:59:00;;;;;;;3.97;3.67;;;10.00;99.90;;;;;;5037731;28;20474;-76
2023/05/11 03:01:28;;;;;;;5.57;4.30;;;10.00;99.90;;;;;;5033181;28;20542;-75
2023/05/11 03:03:55;;;;;;;5.10;4.40;;;10.00;99.90;;;;;;5037949;28;20866;-76
2023/05/11 03:06:22;;;;;;;5.10;4.00;;;10.00;99.90;;;;;;5041651;28;20507;-76
2023/05/11 03:08:49;;;;;;;4.37;3.60;;;10.00;99.90;;;;;;5038446;28;20516;-76
2023/05/11 03:11:18;;;;;;;5.33;3.73;;;10.00;99.90;;;;;;5033114;28;20502;-76
2023/05/11 03:13:45;;;;;;;4.47;4.17;;;10.00;99.90;;;;;;5035468;28;21001;-76
2023/05/11 03:16:13;;;;;;;5.20;4.03;;;10.00;99.90;;;;;;5032948;28;20450;-76
2023/05/11 03:18:40;;;;;;;8.80;4.37;;;10.00;99.90;;;;;;5032743;28;20465;-76
2023/05/11 03:21:08;;;;;;;12.80;4.53;;;10.00;99.90;;;;;;5033033;28;20474;-77
2023/05/11 03:23:36;;;;;;;4.23;3.90;;;10.00;99.90;;;;;;5038631;28;20941;-76
2023/05/11 03:26:03;;;;;;;5.00;4.30;;;10.00;99.90;;;;;;5043495;28;20507;-75
2023/05/11 03:28:32;;;;;;;4.90;4.50;;;10.00;99.90;;;;;;5034481;28;20804;-76
2023/05/11 03:30:59;;;;;;;5.10;4.23;;;10.00;99.90;;;;;;5038944;28;20474;-76
2023/05/11 03:33:26;;;;;;;6.97;3.90;;;10.00;99.90;;;;;;5033171;28;20575;-75
2023/05/11 03:35:53;;;;;;;4.67;4.00;;;10.00;99.90;;;;;;5042382;28;20450;-76
2023/05/11 03:38:23;;;;;;;6.17;4.20;;;10.00;99.90;;;;;;5052392;28;20449;-77
2023/05/11 03:40:52;;;;;;;6.30;4.30;;;10.00;99.90;;;;;;5040115;28;20461;-76
2023/05/11 03:43:21;;;;;;;4.90;4.40;;;10.00;99.90;;;;;;5037301;28;20491;-76
2023/05/11 03:45:51;;;;;;;4.67;4.23;;;10.00;99.90;;;;;;5038531;28;20523;-76
2023/05/11 03:48:19;;;;;;;10.53;5.13;;;10.00;99.90;;;;;;5036357;28;21114;-76
2023/05/11 03:50:46;;;;;;;4.80;3.80;;;10.00;99.90;;;;;;5031925;28;20496;-76
2023/05/11 03:53:14;;;;;;;6.70;4.40;;;10.00;99.90;;;;;;5047172;28;20457;-77
2023/05/11 03:55:40;;;;;;;5.90;4.70;;;10.00;99.90;;;;;;5031893;28;20453;-76
2023/05/11 03:58:08;;;;;;;4.90;4.50;;;10.00;99.90;;;;;;5035549;28;20463;-76
2023/05/11 04:00:38;;;;;;;4.73;4.30;;;10.00;99.90;;;;;;5035041;28;20526;-76
2023/05/11 04:03:07;;;;;;;12.37;4.70;;;10.00;99.90;;;;;;5045533;28;21037;-76
2023/05/11 04:05:34;;;;;;;8.40;4.33;;;10.00;99.90;;;;;;5043440;28;20560;-77
2023/05/11 04:08:01;;;;;;;5.40;4.30;;;10.00;99.90;;;;;;5031610;28;20453;-76
2023/05/11 04:10:27;;;;;;;6.97;4.90;;;10.00;99.90;;;;;;5040347;28;20538;-76
2023/05/11 04:12:54;;;;;;;4.10;3.80;;;10.00;99.90;;;;;;5032217;28;20501;-76
2023/05/11 04:15:21;;;;;;;4.77;4.23;;;10.00;99.90;;;;;;5040151;28;20486;-76
2023/05/11 04:17:48;;;;;;;5.27;4.40;;;10.00;99.90;;;;;;5039443;28;20458;-76
2023/05/11 04:20:16;;;;;;;5.70;4.50;;;10.10;99.90;;;;;;5031593;28;20474;-76
2023/05/11 04:22:43;;;;;;;6.30;4.83;;;10.10;99.90;;;;;;5037471;28;20978;-77
2023/05/11 04:25:10;;;;;;;7.50;4.57;;;10.10;99.90;;;;;;5036072;28;20455;-75
2023/05/11 04:27:36;;;;;;;5.50;4.50;;;10.10;99.90;;;;;;5036722;28;20454;-75
2023/05/11 04:30:03;;;;;;;6.43;4.83;;;10.20;99.90;;;;;;5031706;28;20480;-73
2023/05/11 04:32:30;;;;;;;7.10;5.10;;;10.20;99.90;;;;;;5039677;28;20503;-72
2023/05/11 04:34:57;;;;;;;7.43;5.03;;;10.30;99.90;;;;;;5031381;28;21000;-73
2023/05/11 04:37:25;;;;;;;5.53;5.03;;;10.30;99.90;;;;;;5039397;28;20457;-73
2023/05/11 04:39:51;;;;;;;5.67;5.00;;;10.30;99.90;;;;;;5046273;28;20463;-73
2023/05/11 04:42:18;;;;;;;7.33;5.20;;;10.40;99.90;;;;;;5035769;28;20457;-73
2023/05/11 04:44:45;;;;;;;6.13;5.03;;;10.40;99.90;;;;;;5034956;28;20458;-73
2023/05/11 04:47:11;;;;;;;7.33;5.60;;;10.40;99.90;;;;;;5030857;28;20450;-73
2023/05/11 04:49:38;;;;;;;7.57;5.30;;;10.50;99.90;;;;;;5031298;28;20513;-73
2023/05/11 04:52:05;;;;;;;11.37;6.50;;;10.60;99.90;;;;;;5034814;28;20875;-74
2023/05/11 04:54:33;;;;;;;11.67;6.17;;;10.60;99.90;;;;;;5039791;28;20485;-71
2023/05/11 04:56:59;;;;;;;11.00;7.20;;;10.60;99.90;;;;;;5041127;28;20675;-72
2023/05/11 04:59:26;;;;;;;9.63;7.10;;;10.70;99.90;;;;;;5044001;28;20460;-72
2023/05/11 05:01:53;;;;;;;10.83;7.17;;;10.70;99.90;;;;;;5039728;28;20538;-72
2023/05/11 05:04:19;;;;;;;9.00;7.00;;;10.80;99.90;;;;;;5040624;28;20994;-72
2023/05/11 05:06:46;;;;;;;9.47;7.53;;;10.80;99.90;;;;;;5030758;28;20941;-72
2023/05/11 05:09:13;;;;;;;19.43;7.90;;;10.90;99.90;;;;;;5035911;28;20465;-72
2023/05/11 05:11:41;;;;;;;13.97;7.80;;;10.90;99.90;;;;;;5033215;28;20476;-73
2023/05/11 05:14:07;;;;;;;11.43;7.70;;;11.00;99.90;;;;;;5032071;28;20509;-73
2023/05/11 05:16:34;;;;;;;11.63;7.60;;;11.00;99.90;;;;;;5031279;28;20950;-75
2023/05/11 05:19:01;;;;;;;9.40;7.77;;;11.10;99.90;;;;;;5042189;28;20460;-74
2023/05/11 05:21:27;;;;;;;11.70;7.87;;;11.10;99.90;;;;;;5041762;28;20526;-74
2023/05/11 05:23:54;;;;;;;11.10;8.50;;;11.10;99.90;;;;;;5030242;28;20505;-74
2023/05/11 05:26:21;;;;;;;27.60;11.03;;;11.10;99.90;;;;;;5033873;28;21010;-73
2023/05/11 05:28:49;;;;;;;51.77;13.67;;;11.10;99.90;;;;;;5035866;28;20490;-72
2023/05/11 05:31:16;;;;;;;39.17;11.57;;;11.10;99.90;;;;;;5033093;28;20984;-72
2023/05/11 05:33:42;;;;;;;22.77;13.40;;;11.20;99.90;;;;;;5029002;28;20458;-72
2023/05/11 05:36:09;;;;;;;17.13;11.90;;;11.20;99.90;;;;;;5030318;28;20489;-72
2023/05/11 05:38:35;;;;;;;56.07;16.60;;;11.30;99.90;;;;;;5036282;28;20528;-72
2023/05/11 05:41:02;;;;;;;38.37;14.87;;;11.30;99.90;;;;;;5037204;28;20481;-72
2023/05/11 05:43:29;;;;;;;20.23;14.00;;;11.40;99.90;;;;;;5049962;28;20491;-72
2023/05/11 05:45:57;;;;;;;20.07;14.20;;;11.40;99.90;;;;;;5030377;28;20598;-74
2023/05/11 05:48:23;;;;;;;20.73;14.93;;;11.40;99.90;;;;;;5043001;28;20868;-73
2023/05/11 05:50:50;;;;;;;33.80;15.53;;;11.40;99.90;;;;;;5038242;28;20466;-73
2023/05/11 05:53:17;;;;;;;20.83;14.37;;;11.40;99.90;;;;;;5040897;28;20483;-73
2023/05/11 05:55:43;;;;;;;20.33;14.70;;;11.40;99.90;;;;;;5039977;28;20495;-74
2023/05/11 05:58:10;;;;;;;19.90;13.57;;;11.40;99.90;;;;;;5043574;28;20880;-73
2023/05/11 06:00:37;;;;;;;18.97;13.87;;;11.40;99.90;;;;;;5037872;28;20485;-73
2023/05/11 06:03:05;;;;;;;22.60;14.73;;;11.40;99.90;;;;;;5038221;28;20449;-72
2023/05/11 06:05:32;;;;;;;20.47;14.70;;;11.50;99.90;;;;;;5037944;28;20454;-72
2023/05/11 06:07:59;;;;;;;24.00;15.47;;;11.50;99.90;;;;;;5045102;28;20456;-73
2023/05/11 06:10:26;;;;;;;21.30;14.60;;;11.50;99.90;;;;;;5045416;28;20510;-72
2023/05/11 06:12:53;;;;;;;23.70;15.10;;;11.60;99.90;;;;;;5045712;28;20460;-72
2023/05/11 06:15:20;;;;;;;19.83;14.80;;;11.60;99.90;;;;;;5046259;28;20538;-72
2023/05/11 06:17:47;;;;;;;20.80;15.00;;;11.70;99.90;;;;;;5045571;28;20452;-72
2023/05/11 06:20:15;;;;;;;23.20;14.87;;;11.70;99.90;;;;;;5048641;28;20502;-71
2023/05/11 06:22:41;;;;;;;22.87;15.47;;;11.70;99.90;;;;;;5047862;28;20457;-72
2023/05/11 06:25:08;;;;;;;21.20;15.50;;;11.80;99.90;;;;;;5043252;28;20452;-72
2023/05/11 06:27:35;;;;;;;22.60;15.80;;;11.90;99.90;;;;;;5049337;28;20451;-72
2023/05/11 06:30:02;;;;;;;19.33;14.30;;;11.90;99.90;;;;;;5038143;28;20544;-72
2023/05/11 06:32:28;;;;;;;21.97;15.70;;;11.90;99.90;;;;;;5046497;28;20449;-72
2023/05/11 06:34:55;;;;;;;24.17;15.23;;;11.90;99.90;;;;;;5041499;28;20917;-72
2023/05/11 06:37:23;;;;;;;22.77;14.90;;;12.00;99.90;;;;;;5040359;28;20453;-71
2023/05/11 06:39:49;;;;;;;17.87;13.87;;;12.00;99.90;;;;;;5037428;28;20453;-71
2023/05/11 06:42:16;;;;;;;21.77;14.83;;;12.00;99.90;;;;;;5039296;28;20466;-71
2023/05/11 06:44:43;;;;;;;21.73;15.30;;;12.00;99.90;;;;;;5035574;28;20449;-71
2023/05/11 06:47:10;;;;;;;23.40;14.30;;;12.00;99.90;;;;;;5043657;28;20454;-71
2023/05/11 06:49:36;;;;;;;22.10;16.10;;;12.00;99.90;;;;;;5035526;28;20460;-71
2023/05/11 06:52:03;;;;;;;20.87;14.80;;;12.00;99.90;;;;;;5047732;28;20468;-70
2023/05/11 06:54:31;;;;;;;19.63;14.57;;;12.10;99.90;;;;;;5048796;28;20481;-71
2023/05/11 06:56:58;;;;;;;18.70;14.77;;;12.00;99.90;;;;;;5041414;28;20453;-71
2023/05/11 06:59:24;;;;;;;21.60;15.10;;;12.10;99.90;;;;;;5047541;28;20461;-71
2023/05/11 07:01:51;;;;;;;19.40;15.13;;;12.10;99.90;;;;;;5047836;28;20473;-71
2023/05/11 07:04:18;;;;;;;18.53;13.33;;;12.10;99.90;;;;;;5049115;28;20890;-71
2023/05/11 07:06:44;;;;;;;20.33;14.90;;;12.10;99.90;;;;;;5039542;28;20461;-71
2023/05/11 07:09:11;;;;;;;22.33;15.37;;;12.20;99.90;;;;;;5047704;28;20534;-72
2023/05/11 07:11:39;;;;;;;20.03;14.23;;;12.20;99.90;;;;;;5048200;28;20530;-72
2023/05/11 07:14:07;;;;;;;17.73;13.40;;;12.30;99.90;;;;;;5048717;28;20772;-70
2023/05/11 07:16:36;;;;;;;19.30;13.13;;;12.50;99.90;;;;;;5046946;28;21368;-72
2023/05/11 07:19:03;;;;;;;18.57;14.07;;;12.50;99.90;;;;;;5049037;28;20455;-72
2023/05/11 07:21:30;;;;;;;17.47;13.80;;;12.60;99.90;;;;;;5048176;28;20517;-72
2023/05/11 07:23:58;;;;;;;19.90;14.70;;;12.70;99.90;;;;;;5048529;28;20461;-72
2023/05/11 07:26:24;;;;;;;26.60;13.80;;;12.80;99.90;;;;;;5048203;28;20448;-73
2023/05/11 07:28:52;;;;;;;19.03;13.63;;;12.90;99.90;;;;;;5046147;28;20503;-72
2023/05/11 07:31:19;;;;;;;20.87;13.77;;;13.00;99.90;;;;;;5048413;28;20548;-72
2023/05/11 07:33:46;;;;;;;18.30;13.10;;;13.10;99.90;;;;;;5048316;28;20448;-73
2023/05/11 07:36:13;;;;;;;17.83;13.83;;;13.20;99.90;;;;;;5046942;28;20576;-72
2023/05/11 07:38:39;;;;;;;19.33;13.97;;;13.20;99.90;;;;;;5048117;28;20992;-73
2023/05/11 07:41:06;;;;;;;17.03;13.50;;;13.20;99.90;;;;;;5047886;28;20516;-72
2023/05/11 07:43:33;;;;;;;17.87;12.80;;;13.30;99.90;;;;;;5048264;28;20461;-72
2023/05/11 07:46:01;;;;;;;18.63;12.97;;;13.30;99.90;;;;;;5046917;28;20490;-72
2023/05/11 07:48:27;;;;;;;16.83;13.20;;;13.20;99.90;;;;;;5047252;28;20453;-72
2023/05/11 07:50:54;;;;;;;18.93;13.10;;;13.30;99.90;;;;;;5047473;28;20478;-72
2023/05/11 07:53:21;;;;;;;22.20;13.60;;;13.30;99.90;;;;;;5048597;28;20507;-72
2023/05/11 07:55:47;;;;;;;18.60;12.97;;;13.40;99.90;;;;;;5047965;28;20485;-72
2023/05/11 07:58:14;;;;;;;18.07;13.43;;;13.40;99.90;;;;;;5047184;28;20518;-72
2023/05/11 08:00:41;;;;;;;19.77;12.83;;;13.40;99.90;;;;;;5047824;28;20551;-72
2023/05/11 08:03:09;;;;;;;18.00;13.97;;;13.40;99.90;;;;;;5048059;28;20453;-72
2023/05/11 08:05:36;;;;;;;22.93;13.63;;;13.40;99.90;;;;;;5047226;28;20455;-72
2023/05/11 08:08:03;;;;;;;18.80;13.87;;;13.30;99.90;;;;;;5047134;28;20449;-72
2023/05/11 08:10:30;;;;;;;18.63;14.20;;;13.30;99.90;;;;;;5047198;28;20470;-71
2023/05/11 08:12:57;;;;;;;18.73;14.10;;;13.30;99.90;;;;;;5047282;28;20548;-71
2023/05/11 08:15:24;;;;;;;18.13;13.93;;;13.30;99.90;;;;;;5047925;28;20644;-71
2023/05/11 08:17:50;;;;;;;17.07;13.50;;;13.30;99.90;;;;;;5046868;28;20452;-71
2023/05/11 08:20:18;;;;;;;23.17;14.30;;;13.30;99.90;;;;;;5047430;28;20472;-71
2023/05/11 08:22:45;;;;;;;16.07;13.00;;;13.30;99.90;;;;;;5046861;28;20831;-72
2023/05/11 08:25:13;;;;;;;19.10;13.80;;;13.30;99.90;;;;;;5047535;28;20844;-72
2023/05/11 08:27:40;;;;;;;16.63;11.50;;;13.30;99.90;;;;;;5047151;28;20441;-72
2023/05/11 08:30:08;;;;;;;22.83;14.13;;;13.30;99.90;;;;;;5047165;28;20477;-71
2023/05/11 08:32:35;;;;;;;15.03;12.57;;;13.30;99.90;;;;;;5047386;28;20453;-71
2023/05/11 08:35:02;;;;;;;18.43;12.90;;;13.40;99.90;;;;;;5047695;28;20538;-71
2023/05/11 08:37:30;;;;;;;18.33;13.43;;;13.40;99.90;;;;;;5046784;28;20468;-71
2023/05/11 08:39:57;;;;;;;17.13;13.63;;;13.50;99.90;;;;;;5046547;28;20457;-71
2023/05/11 08:42:27;;;;;;;20.10;13.23;;;13.50;99.90;;;;;;5046408;28;21599;-71
2023/05/11 08:44:56;;;;;;;22.27;13.20;;;13.50;99.90;;;;;;5047016;28;20455;-70
2023/05/11 08:47:23;;;;;;;21.40;13.87;;;13.60;99.90;;;;;;5047063;28;20440;-71
2023/05/11 08:49:51;;;;;;;15.43;12.80;;;13.70;99.90;;;;;;5046648;28;20441;-71
2023/05/11 08:52:18;;;;;;;15.40;12.70;;;13.80;99.90;;;;;;5046922;28;20456;-70
2023/05/11 08:54:46;;;;;;;16.07;12.57;;;13.90;99.90;;;;;;5047128;28;20953;-72
2023/05/11 08:57:14;;;;;;;24.00;14.03;;;13.90;99.90;;;;;;5046076;28;20459;-71
2023/05/11 08:59:42;;;;;;;18.10;12.17;;;14.00;99.90;;;;;;5045091;28;20456;-72
2023/05/11 09:02:13;;;;;;;14.53;11.87;;;14.10;99.90;;;;;;5046703;28;20460;-72
2023/05/11 09:04:41;;;;;;;15.00;10.43;;;14.10;99.90;;;;;;5046955;28;21587;-72
2023/05/11 09:07:08;;;;;;;14.90;10.77;;;14.10;99.90;;;;;;5046356;28;21350;-72
2023/05/11 09:09:34;;;;;;;15.60;10.67;;;14.10;99.90;;;;;;5046842;28;20522;-71
2023/05/11 09:12:03;;;;;;;15.37;11.20;;;14.10;99.90;;;;;;5046185;28;20472;-72
2023/05/11 09:14:30;;;;;;;12.60;10.37;;;14.20;99.90;;;;;;5046705;28;20452;-72
2023/05/11 09:16:57;;;;;;;14.37;10.87;;;14.20;99.90;;;;;;5046216;28;21007;-72
2023/05/11 09:19:24;;;;;;;12.03;10.70;;;14.30;99.90;;;;;;5046799;28;20489;-72
2023/05/11 09:21:52;;;;;;;21.23;11.73;;;14.40;99.90;;;;;;5045372;28;20483;-72
2023/05/11 09:24:20;;;;;;;15.90;11.30;;;14.40;99.90;;;;;;5046415;28;20456;-72
2023/05/11 09:26:47;;;;;;;17.03;11.10;;;14.40;99.90;;;;;;5045325;28;20448;-70
2023/05/11 09:29:20;;;;;;;13.80;11.20;;;14.50;99.90;;;;;;5046702;28;20455;-71
2023/05/11 09:31:47;;;;;;;12.43;10.20;;;14.60;99.90;;;;;;5046745;28;20468;-71
2023/05/11 09:34:15;;;;;;;13.60;11.63;;;14.70;99.90;;;;;;5046523;28;20464;-71
2023/05/11 09:36:42;;;;;;;15.07;11.50;;;14.70;99.90;;;;;;5046216;28;21261;-71
2023/05/11 09:39:12;;;;;;;12.93;11.37;;;14.80;99.90;;;;;;5046468;28;20452;-71
2023/05/11 09:41:38;;;;;;;11.23;10.13;;;14.90;99.90;;;;;;5045762;28;20477;-71
2023/05/11 09:44:10;;;;;;;10.90;9.80;;;15.00;99.90;;;;;;5046531;28;20871;-71
2023/05/11 09:46:40;;;;;;;15.43;10.37;;;15.00;99.90;;;;;;5046200;28;20445;-71
2023/05/11 09:49:07;;;;;;;13.77;10.80;;;15.10;99.90;;;;;;5045880;28;20579;-71
2023/05/11 09:51:35;;;;;;;11.30;10.10;;;15.10;99.90;;;;;;5045497;28;20487;-71
2023/05/11 09:54:15;;;;;;;10.57;9.50;;;15.10;99.90;;;;;;5047209;28;20544;-71
2023/05/11 09:56:46;;;;;;;10.90;9.80;;;15.10;99.90;;;;;;5048622;28;20496;-71
2023/05/11 09:59:15;;;;;;;9.95;8.48;;;15.10;99.90;;;;;;5048473;28;20458;-71
2023/05/11 10:01:43;;;;;;;10.60;9.50;;;15.10;99.90;;;;;;5048912;28;20234;-71
2023/05/11 10:04:10;;;;;;;11.30;8.80;;;15.10;99.90;;;;;;5048881;28;20850;-71
2023/05/11 10:06:47;;;;;;;10.07;9.13;;;15.10;99.90;;;;;;5049197;28;20464;-71
2023/05/11 10:09:17;;;;;;;9.30;8.40;;;15.10;99.90;;;;;;5049089;28;21094;-71
2023/05/11 10:11:45;;;;;;;9.90;8.63;;;15.20;99.90;;;;;;5048852;28;20546;-71
2023/05/11 10:14:13;;;;;;;9.40;7.80;;;15.30;99.90;;;;;;5049554;28;20449;-70
2023/05/11 10:16:43;;;;;;;15.00;8.57;;;15.40;99.90;;;;;;5048041;28;20586;-71
2023/05/11 10:19:10;;;;;;;9.80;8.50;;;15.50;99.90;;;;;;5049233;28;20460;-70
2023/05/11 10:21:38;;;;;;;8.33;7.10;;;15.60;99.90;;;;;;5047959;28;20995;-71
2023/05/11 10:24:06;;;;;;;9.60;7.73;;;16.00;99.90;;;;;;5049005;28;20530;-72
2023/05/11 10:26:33;;;;;;;13.17;7.20;;;16.60;99.90;;;;;;5048571;28;20423;-71
2023/05/11 10:29:00;;;;;;;8.07;7.27;;;17.00;99.90;;;;;;5049194;28;20448;-71
2023/05/11 10:31:27;;;;;;;8.57;7.00;;;17.30;99.90;;;;;;5049557;28;20454;-69
2023/05/11 10:33:56;;;;;;;10.10;7.90;;;17.40;99.90;;;;;;5048071;28;20420;-69
2023/05/11 10:36:23;;;;;;;9.47;8.00;;;17.50;99.90;;;;;;5047468;28;20551;-70
2023/05/11 10:38:50;;;;;;;8.53;7.50;;;17.40;99.90;;;;;;5047873;28;20432;-71
2023/05/11 10:41:39;;;;;;;8.60;7.27;;;17.50;99.90;;;;;;5047510;28;20886;-71
2023/05/11 10:44:42;;;;;;;8.33;7.53;;;17.40;99.90;;;;;;5047690;28;20456;-70
2023/05/11 10:47:26;;;;;;;7.90;7.10;;;17.10;99.90;;;;;;5025364;28;20452;-71
2023/05/11 10:50:15;;;;;;;8.60;7.80;;;17.10;99.90;;;;;;5049071;28;20484;-71
2023/05/11 10:53:01;;;;;;;8.40;7.20;;;17.00;99.90;;;;;;5049857;28;20427;-71
2023/05/11 10:55:37;;;;;;;12.77;8.30;;;16.80;99.90;;;;;;5048910;28;20516;-71
2023/05/11 10:58:09;;;;;;;11.67;8.47;;;16.70;99.90;;;;;;5048615;28;20436;-70
2023/05/11 11:01:30;;;;;;;8.20;7.20;;;16.70;99.90;;;;;;5049050;28;20483;-70
2023/05/11 11:03:58;;;;;;;9.00;8.10;;;16.60;99.90;;;;;;5048882;28;20460;-71
2023/05/11 11:06:28;;;;;;;10.80;8.57;;;16.50;99.90;;;;;;5048337;28;20539;-71
2023/05/11 11:08:56;;;;;;;11.27;8.63;;;16.60;99.90;;;;;;5048911;28;20476;-70
2023/05/11 11:11:31;;;;;;;9.60;8.60;;;16.60;99.90;;;;;;5052776;28;20547;-72
2023/05/11 11:14:01;;;;;;;10.67;8.17;;;16.40;99.90;;;;;;5049383;28;21083;-70
2023/05/11 11:16:28;;;;;;;11.23;9.67;;;16.30;99.90;;;;;;5049011;28;21228;-70
2023/05/11 11:19:37;;;;;;;11.60;10.40;;;16.20;99.90;;;;;;5047743;28;20538;-70
2023/05/11 11:22:05;;;;;;;12.80;9.50;;;16.30;99.90;;;;;;5007052;28;20443;-70
2023/05/11 11:24:46;;;;;;;11.47;9.43;;;16.50;99.90;;;;;;5048764;28;20416;-70
2023/05/11 11:27:13;;;;;;;13.77;11.07;;;16.70;99.90;;;;;;5048316;28;20416;-70
2023/05/11 11:29:40;;;;;;;13.83;11.40;;;16.70;99.90;;;;;;5048741;28;20444;-70
2023/05/11 11:32:25;;;;;;;10.83;9.67;;;16.90;99.90;;;;;;5047885;28;20485;-70
2023/05/11 11:34:52;;;;;;;16.40;9.80;;;17.00;99.90;;;;;;5046915;28;20461;-71
2023/05/11 11:37:21;;;;;;;14.33;10.70;;;17.20;99.90;;;;;;5048688;28;20459;-71
2023/05/11 11:39:59;;;;;;;12.13;10.70;;;17.20;99.90;;;;;;5047833;28;20453;-71
2023/05/11 11:42:38;;;;;;;12.43;10.57;;;17.10;99.90;;;;;;5048257;28;20916;-71
2023/05/11 11:45:27;;;;;;;11.80;9.20;;;16.90;99.90;;;;;;5047334;28;20447;-71
2023/05/11 11:48:14;;;;;;;12.03;9.40;;;16.70;99.90;;;;;;5048021;28;20428;-71
2023/05/11 11:50:43;;;;;;;9.87;8.77;;;16.60;99.90;;;;;;5048047;28;20480;-72
2023/05/11 11:53:12;;;;;;;10.50;9.00;;;16.60;99.90;;;;;;5047508;28;20501;-71
2023/05/11 11:55:47;;;;;;;10.43;8.20;;;16.70;99.90;;;;;;5048021;28;21121;-71
2023/05/11 11:58:47;;;;;;;14.90;9.10;;;16.90;99.90;;;;;;5047301;28;20812;-71
2023/05/11 12:01:15;;;;;;;11.93;9.60;;;16.90;99.90;;;;;;5048236;28;20443;-71
2023/05/11 12:03:45;;;;;;;13.70;9.40;;;17.10;99.90;;;;;;5047472;28;20423;-71
2023/05/11 12:06:13;;;;;;;9.83;8.47;;;17.10;99.90;;;;;;5047858;28;20975;-71
2023/05/11 12:08:43;;;;;;;7.80;7.10;;;17.00;99.90;;;;;;5047360;28;21676;-71
2023/05/11 12:11:09;;;;;;;9.60;8.30;;;17.00;99.90;;;;;;5047547;28;20503;-71
2023/05/11 12:13:36;;;;;;;13.70;8.83;;;17.10;99.90;;;;;;5047825;28;21018;-71
2023/05/11 12:16:11;;;;;;;10.23;9.13;;;17.10;99.90;;;;;;5047153;28;20530;-71
2023/05/11 12:18:37;;;;;;;12.67;8.50;;;17.10;99.90;;;;;;5047340;28;20946;-71
2023/05/11 12:21:04;;;;;;;11.33;9.27;;;17.20;99.90;;;;;;5047143;28;20446;-73
2023/05/11 12:23:31;;;;;;;17.17;10.10;;;17.20;99.90;;;;;;5047076;28;20460;-72
2023/05/11 12:26:02;;;;;;;11.33;8.40;;;17.30;99.90;;;;;;5048019;28;20438;-72
2023/05/11 12:28:29;;;;;;;9.33;8.33;;;17.10;99.90;;;;;;5047539;28;20431;-72
2023/05/11 12:30:56;;;;;;;10.70;9.60;;;17.00;99.90;;;;;;5046483;28;20455;-72
2023/05/11 12:33:23;;;;;;;12.63;10.00;;;16.90;99.90;;;;;;5047899;28;20464;-72
2023/05/11 12:35:52;;;;;;;13.83;10.60;;;16.90;99.90;;;;;;5047187;28;20960;-72
2023/05/11 12:38:19;;;;;;;12.23;10.30;;;16.70;99.90;;;;;;5047366;28;20832;-72
2023/05/11 12:40:48;;;;;;;8.40;7.60;;;16.60;99.90;;;;;;5046545;28;20440;-72
2023/05/11 12:43:19;;;;;;;7.70;7.00;;;16.50;99.90;;;;;;5047773;28;20432;-71
2023/05/11 12:45:46;;;;;;;7.47;6.80;;;16.50;99.90;;;;;;5047001;28;21140;-72
2023/05/11 12:48:14;;;;;;;9.53;6.90;;;16.50;99.90;;;;;;5047149;28;20450;-72